Wetterdaten: Woche 10.04.17 - 16.04.17 (KW15)
Datum Zeit Temperatur Luftfeuchte Luftdruck Niederschlag Windrichtung Sonnenschein Solar Wind
10.04.2017 00:00 9,2 C 79 % 1019,9 hPa 0,0 l/m N 0,00 h 0 W/m 0,0 km/h (0 Bft)
10.04.2017 01:00 8,2 C 84 % 1019,7 hPa 0,0 l/m N 0,00 h 0 W/m 0,0 km/h (0 Bft)
10.04.2017 02:00 7,2 C 86 % 1019,4 hPa 0,0 l/m N 0,00 h 0 W/m 0,0 km/h (0 Bft)
10.04.2017 03:00 6,4 C 89 % 1019,0 hPa 0,0 l/m N 0,00 h 0 W/m 0,0 km/h (0 Bft)
10.04.2017 04:00 5,9 C 90 % 1018,9 hPa 0,0 l/m N 0,00 h 0 W/m 0,0 km/h (0 Bft)
10.04.2017 05:00 5,3 C 91 % 1018,8 hPa 0,0 l/m N 0,00 h 0 W/m 0,0 km/h (0 Bft)
10.04.2017 06:00 5,1 C 92 % 1018,7 hPa 0,0 l/m N 0,08 h 10 W/m 0,0 km/h (0 Bft)
10.04.2017 07:00 6,2 C 90 % 1018,9 hPa 0,0 l/m SW 0,92 h 88 W/m 0,9 km/h (0 Bft)
10.04.2017 08:00 10,4 C 81 % 1018,8 hPa 0,0 l/m S 0,83 h 232 W/m 6,6 km/h (2 Bft)
10.04.2017 09:00 14,0 C 72 % 1018,6 hPa 0,0 l/m S-SW 0,92 h 388 W/m 11,0 km/h (2 Bft)
10.04.2017 10:00 17,4 C 59 % 1018,3 hPa 0,0 l/m SW 0,92 h 535 W/m 21,1 km/h (4 Bft)
10.04.2017 11:00 19,4 C 46 % 1018,1 hPa 0,0 l/m W-SW 1,00 h 686 W/m 26,4 km/h (4 Bft)
10.04.2017 12:00 20,6 C 44 % 1017,5 hPa 0,0 l/m W-SW 1,00 h 754 W/m 23,6 km/h (4 Bft)
10.04.2017 13:00 21,3 C 44 % 1016,8 hPa 0,0 l/m W-SW 1,00 h 760 W/m 25,5 km/h (4 Bft)
10.04.2017 14:00 21,8 C 45 % 1016,1 hPa 0,0 l/m W-SW 0,92 h 714 W/m 27,2 km/h (4 Bft)
10.04.2017 15:00 22,1 C 43 % 1015,5 hPa 0,0 l/m SW 0,83 h 596 W/m 24,1 km/h (4 Bft)
10.04.2017 16:00 20,5 C 47 % 1014,8 hPa 0,0 l/m W-SW 0,33 h 269 W/m 15,7 km/h (3 Bft)
10.04.2017 17:00 21,2 C 41 % 1014,4 hPa 0,0 l/m W-SW 0,25 h 213 W/m 18,9 km/h (3 Bft)
10.04.2017 18:00 20,7 C 38 % 1014,2 hPa 0,0 l/m W-NW 0,25 h 136 W/m 12,5 km/h (3 Bft)
10.04.2017 19:00 19,4 C 43 % 1014,0 hPa 0,0 l/m W-NW 0,25 h 45 W/m 7,4 km/h (2 Bft)
10.04.2017 20:00 17,4 C 48 % 1014,3 hPa 0,0 l/m W 0,00 h 5 W/m 6,2 km/h (2 Bft)
10.04.2017 21:00 16,5 C 61 % 1016,1 hPa 0,6 l/m NW 0,00 h 0 W/m 18,8 km/h (3 Bft)
10.04.2017 22:00 12,9 C 82 % 1016,6 hPa 0,4 l/m N 0,00 h 0 W/m 10,9 km/h (2 Bft)
10.04.2017 23:00 11,3 C 79 % 1017,2 hPa 0,0 l/m N 0,00 h 0 W/m 21,6 km/h (4 Bft)
11.04.2017 00:00 9,9 C 78 % 1018,1 hPa 0,0 l/m N 0,00 h 0 W/m 12,3 km/h (3 Bft)
11.04.2017 01:00 8,8 C 80 % 1018,6 hPa 0,0 l/m N-NO 0,00 h 0 W/m 1,9 km/h (1 Bft)
11.04.2017 02:00 8,1 C 79 % 1018,9 hPa 0,0 l/m N 0,00 h 0 W/m 6,3 km/h (2 Bft)
11.04.2017 03:00 7,6 C 81 % 1019,2 hPa 0,0 l/m N 0,00 h 0 W/m 2,5 km/h (1 Bft)
11.04.2017 04:00 7,3 C 81 % 1019,4 hPa 0,0 l/m N-NW 0,00 h 0 W/m 3,4 km/h (1 Bft)
11.04.2017 05:00 7,0 C 81 % 1019,4 hPa 0,0 l/m N 0,00 h 0 W/m 4,7 km/h (1 Bft)
11.04.2017 06:00 6,8 C 82 % 1019,8 hPa 0,0 l/m N 0,00 h 6 W/m 0,0 km/h (0 Bft)
11.04.2017 07:00 7,0 C 82 % 1020,3 hPa 0,0 l/m N 0,00 h 40 W/m 0,5 km/h (0 Bft)
11.04.2017 08:00 7,5 C 80 % 1020,9 hPa 0,0 l/m N 0,00 h 134 W/m 11,0 km/h (2 Bft)
11.04.2017 09:00 8,4 C 77 % 1021,3 hPa 0,0 l/m N-NO 0,83 h 337 W/m 12,9 km/h (3 Bft)
11.04.2017 10:00 9,8 C 72 % 1021,7 hPa 0,0 l/m N-NO 0,67 h 469 W/m 9,1 km/h (2 Bft)
11.04.2017 11:00 10,1 C 64 % 1022,0 hPa 0,0 l/m N 0,08 h 319 W/m 9,3 km/h (2 Bft)
11.04.2017 12:00 11,1 C 58 % 1022,0 hPa 0,0 l/m NO 0,58 h 493 W/m 6,2 km/h (2 Bft)
11.04.2017 13:00 12,3 C 54 % 1021,6 hPa 0,0 l/m O 0,75 h 653 W/m 9,5 km/h (2 Bft)
11.04.2017 14:00 13,1 C 50 % 1021,3 hPa 0,0 l/m O-NO 0,58 h 599 W/m 8,6 km/h (2 Bft)
11.04.2017 15:00 13,5 C 49 % 1021,0 hPa 0,0 l/m NO 0,58 h 490 W/m 9,1 km/h (2 Bft)
11.04.2017 16:00 14,1 C 46 % 1020,7 hPa 0,0 l/m N-NO 1,00 h 532 W/m 8,6 km/h (2 Bft)
11.04.2017 17:00 13,6 C 46 % 1020,6 hPa 0,0 l/m W-NW 0,42 h 232 W/m 5,6 km/h (1 Bft)
11.04.2017 18:00 13,5 C 46 % 1020,8 hPa 0,0 l/m N-NO 0,92 h 162 W/m 7,9 km/h (2 Bft)
11.04.2017 19:00 12,5 C 49 % 1020,9 hPa 0,0 l/m NO 0,08 h 40 W/m 8,6 km/h (2 Bft)
11.04.2017 20:00 10,5 C 56 % 1021,8 hPa 0,0 l/m NO 0,00 h 5 W/m 8,4 km/h (2 Bft)
11.04.2017 21:00 8,4 C 64 % 1022,5 hPa 0,0 l/m N 0,00 h 0 W/m 1,1 km/h (0 Bft)
11.04.2017 22:00 6,9 C 72 % 1022,7 hPa 0,0 l/m N 0,00 h 0 W/m 0,0 km/h (0 Bft)
11.04.2017 23:00 6,0 C 77 % 1022,7 hPa 0,0 l/m N 0,00 h 0 W/m 0,0 km/h (0 Bft)
12.04.2017 00:00 5,0 C 79 % 1022,2 hPa 0,0 l/m N 0,00 h 0 W/m 0,0 km/h (0 Bft)
12.04.2017 01:00 4,2 C 82 % 1021,9 hPa 0,0 l/m N 0,00 h 0 W/m 0,0 km/h (0 Bft)
12.04.2017 02:00 3,5 C 83 % 1021,6 hPa 0,0 l/m NO 0,00 h 0 W/m 0,9 km/h (0 Bft)
12.04.2017 03:00 3,0 C 84 % 1021,3 hPa 0,0 l/m N 0,00 h 0 W/m 0,0 km/h (0 Bft)
12.04.2017 04:00 3,2 C 83 % 1020,8 hPa 0,0 l/m N 0,00 h 0 W/m 0,1 km/h (0 Bft)
12.04.2017 05:00 3,2 C 84 % 1020,6 hPa 0,0 l/m NO 0,00 h 0 W/m 0,8 km/h (0 Bft)
12.04.2017 06:00 3,0 C 84 % 1020,5 hPa 0,0 l/m N 0,00 h 10 W/m 0,0 km/h (0 Bft)
12.04.2017 07:00 2,3 C 89 % 1020,4 hPa 0,0 l/m N 0,00 h 60 W/m 0,0 km/h (0 Bft)
12.04.2017 08:00 4,3 C 85 % 1020,4 hPa 0,0 l/m N 1,00 h 232 W/m 0,5 km/h (0 Bft)
12.04.2017 09:00 6,6 C 80 % 1020,0 hPa 0,0 l/m NO 1,00 h 367 W/m 5,2 km/h (1 Bft)
12.04.2017 10:00 10,1 C 68 % 1019,8 hPa 0,0 l/m S 1,00 h 588 W/m 8,9 km/h (2 Bft)
12.04.2017 11:00 12,6 C 62 % 1019,4 hPa 0,0 l/m SW 1,00 h 616 W/m 13,3 km/h (3 Bft)
12.04.2017 12:00 14,4 C 58 % 1018,5 hPa 0,0 l/m S-SW 1,00 h 676 W/m 15,8 km/h (3 Bft)
12.04.2017 13:00 16,0 C 47 % 1017,4 hPa 0,0 l/m W-SW 1,00 h 772 W/m 18,5 km/h (3 Bft)
12.04.2017 14:00 17,1 C 46 % 1016,3 hPa 0,0 l/m W-SW 1,00 h 736 W/m 20,9 km/h (4 Bft)
12.04.2017 15:00 18,1 C 40 % 1015,3 hPa 0,0 l/m W-SW 1,00 h 648 W/m 22,3 km/h (4 Bft)
12.04.2017 16:00 18,6 C 41 % 1014,1 hPa 0,0 l/m SW 1,00 h 518 W/m 22,0 km/h (4 Bft)
12.04.2017 17:00 18,2 C 43 % 1013,3 hPa 0,0 l/m W-SW 0,92 h 348 W/m 23,1 km/h (4 Bft)
12.04.2017 18:00 17,5 C 41 % 1012,9 hPa 0,0 l/m W-SW 0,67 h 172 W/m 24,1 km/h (4 Bft)
12.04.2017 19:00 16,5 C 42 % 1012,6 hPa 0,0 l/m W-SW 0,42 h 51 W/m 14,8 km/h (3 Bft)
12.04.2017 20:00 15,6 C 43 % 1012,7 hPa 0,0 l/m W 0,00 h 0 W/m 13,8 km/h (3 Bft)
12.04.2017 21:00 15,0 C 43 % 1013,0 hPa 0,0 l/m W 0,00 h 0 W/m 8,4 km/h (2 Bft)
12.04.2017 22:00 14,4 C 45 % 1013,0 hPa 0,0 l/m W 0,00 h 0 W/m 11,3 km/h (2 Bft)
12.04.2017 23:00 14,0 C 47 % 1013,0 hPa 0,0 l/m W-NW 0,00 h 0 W/m 13,8 km/h (3 Bft)
13.04.2017 00:00 13,4 C 50 % 1012,9 hPa 0,0 l/m W 0,00 h 0 W/m 12,8 km/h (3 Bft)
13.04.2017 01:00 12,7 C 53 % 1012,8 hPa 0,0 l/m W 0,00 h 0 W/m 10,6 km/h (2 Bft)
13.04.2017 02:00 11,9 C 57 % 1012,5 hPa 0,0 l/m W 0,00 h 0 W/m 8,9 km/h (2 Bft)
13.04.2017 03:00 11,1 C 62 % 1012,2 hPa 0,0 l/m W 0,00 h 0 W/m 6,7 km/h (2 Bft)
13.04.2017 04:00 10,5 C 66 % 1012,1 hPa 0,0 l/m W 0,00 h 0 W/m 8,2 km/h (2 Bft)
13.04.2017 05:00 9,7 C 69 % 1012,0 hPa 0,0 l/m W 0,00 h 0 W/m 10,3 km/h (2 Bft)
13.04.2017 06:00 9,4 C 71 % 1011,9 hPa 0,0 l/m W-SW 0,00 h 10 W/m 12,4 km/h (3 Bft)
13.04.2017 07:00 9,2 C 73 % 1012,2 hPa 0,0 l/m W-SW 0,08 h 59 W/m 12,4 km/h (3 Bft)
13.04.2017 08:00 10,1 C 72 % 1012,6 hPa 0,0 l/m W-SW 0,08 h 127 W/m 16,0 km/h (3 Bft)
13.04.2017 09:00 11,8 C 67 % 1012,9 hPa 0,0 l/m W 0,58 h 350 W/m 23,1 km/h (4 Bft)
13.04.2017 10:00 12,3 C 61 % 1013,2 hPa 0,0 l/m W-NW 0,25 h 287 W/m 22,1 km/h (4 Bft)
13.04.2017 11:00 13,0 C 57 % 1013,2 hPa 0,0 l/m W-NW 0,67 h 409 W/m 20,2 km/h (4 Bft)
13.04.2017 12:00 13,9 C 54 % 1013,1 hPa 0,0 l/m W-NW 0,75 h 622 W/m 21,7 km/h (4 Bft)
13.04.2017 13:00 14,7 C 52 % 1012,9 hPa 0,0 l/m W-NW 0,83 h 671 W/m 21,4 km/h (4 Bft)
13.04.2017 14:00 15,3 C 47 % 1012,5 hPa 0,0 l/m N-NW 0,83 h 691 W/m 20,0 km/h (4 Bft)
13.04.2017 15:00 15,7 C 45 % 1012,3 hPa 0,0 l/m W-NW 0,92 h 599 W/m 20,1 km/h (4 Bft)
13.04.2017 16:00 16,1 C 46 % 1012,0 hPa 0,0 l/m W-NW 0,92 h 536 W/m 17,4 km/h (3 Bft)
13.04.2017 17:00 16,4 C 45 % 1011,7 hPa 0,0 l/m W-NW 1,00 h 368 W/m 15,4 km/h (3 Bft)
13.04.2017 18:00 15,4 C 47 % 1011,7 hPa 0,0 l/m N-NW 0,92 h 179 W/m 12,8 km/h (3 Bft)
13.04.2017 19:00 13,8 C 54 % 1011,8 hPa 0,0 l/m N-NO 0,58 h 52 W/m 12,0 km/h (2 Bft)
13.04.2017 20:00 11,8 C 63 % 1012,3 hPa 0,0 l/m N-NO 0,00 h 9 W/m 5,9 km/h (2 Bft)
13.04.2017 21:00 9,4 C 73 % 1013,1 hPa 0,0 l/m N 0,00 h 0 W/m 0,5 km/h (0 Bft)
13.04.2017 22:00 7,7 C 81 % 1013,4 hPa 0,0 l/m N 0,00 h 0 W/m 0,0 km/h (0 Bft)
13.04.2017 23:00 6,7 C 85 % 1013,7 hPa 0,0 l/m N 0,00 h 0 W/m 0,0 km/h (0 Bft)
14.04.2017 00:00 5,9 C 87 % 1014,0 hPa 0,0 l/m N 0,00 h 0 W/m 0,0 km/h (0 Bft)
14.04.2017 01:00 5,8 C 88 % 1014,3 hPa 0,0 l/m N 0,00 h 0 W/m 0,0 km/h (0 Bft)
14.04.2017 02:00 6,3 C 87 % 1014,1 hPa 0,0 l/m N 0,00 h 0 W/m 0,0 km/h (0 Bft)
14.04.2017 03:00 6,1 C 88 % 1013,9 hPa 0,0 l/m N 0,00 h 0 W/m 0,0 km/h (0 Bft)
14.04.2017 04:00 6,4 C 88 % 1013,7 hPa 0,0 l/m N 0,00 h 0 W/m 0,0 km/h (0 Bft)
14.04.2017 05:00 6,4 C 88 % 1013,7 hPa 0,0 l/m N 0,00 h 0 W/m 0,0 km/h (0 Bft)
14.04.2017 06:00 6,5 C 89 % 1013,8 hPa 0,0 l/m N 0,00 h 6 W/m 0,0 km/h (0 Bft)
14.04.2017 07:00 7,1 C 88 % 1014,2 hPa 0,0 l/m N 0,00 h 27 W/m 0,0 km/h (0 Bft)
14.04.2017 08:00 8,1 C 81 % 1014,6 hPa 0,0 l/m N-NO 0,00 h 74 W/m 3,1 km/h (1 Bft)
14.04.2017 09:00 8,8 C 76 % 1014,7 hPa 0,0 l/m N-NW 0,00 h 115 W/m 4,8 km/h (1 Bft)
14.04.2017 10:00 9,3 C 72 % 1014,9 hPa 0,0 l/m NW 0,00 h 214 W/m 3,2 km/h (1 Bft)
14.04.2017 11:00 10,3 C 67 % 1015,1 hPa 0,0 l/m W-NW 0,00 h 309 W/m 11,0 km/h (2 Bft)
14.04.2017 12:00 11,0 C 63 % 1014,9 hPa 0,0 l/m W-NW 0,00 h 320 W/m 11,8 km/h (2 Bft)
14.04.2017 13:00 11,8 C 57 % 1014,8 hPa 0,0 l/m W-NW 0,08 h 354 W/m 12,2 km/h (2 Bft)
14.04.2017 14:00 12,6 C 53 % 1014,7 hPa 0,0 l/m W-NW 0,42 h 447 W/m 12,5 km/h (3 Bft)
14.04.2017 15:00 13,3 C 51 % 1014,2 hPa 0,0 l/m W 0,42 h 452 W/m 14,2 km/h (3 Bft)
14.04.2017 16:00 13,7 C 49 % 1013,6 hPa 0,0 l/m W-NW 0,42 h 370 W/m 13,7 km/h (3 Bft)
14.04.2017 17:00 13,5 C 49 % 1013,6 hPa 0,0 l/m W-NW 0,08 h 211 W/m 8,6 km/h (2 Bft)
14.04.2017 18:00 13,5 C 49 % 1013,5 hPa 0,0 l/m N-NW 0,33 h 156 W/m 6,2 km/h (2 Bft)
14.04.2017 19:00 12,4 C 55 % 1013,9 hPa 0,0 l/m N-NW 0,00 h 28 W/m 3,6 km/h (1 Bft)
14.04.2017 20:00 11,3 C 59 % 1014,4 hPa 0,0 l/m N-NW 0,08 h 5 W/m 1,7 km/h (1 Bft)
14.04.2017 21:00 10,6 C 61 % 1015,0 hPa 0,0 l/m N-NW 0,00 h 0 W/m 3,2 km/h (1 Bft)
14.04.2017 22:00 9,9 C 65 % 1015,2 hPa 0,0 l/m N 0,00 h 0 W/m 0,0 km/h (0 Bft)
14.04.2017 23:00 9,1 C 69 % 1015,1 hPa 0,0 l/m N 0,00 h 0 W/m 0,0 km/h (0 Bft)
15.04.2017 00:00 8,5 C 73 % 1015,1 hPa 0,0 l/m N 0,00 h 0 W/m 0,0 km/h (0 Bft)
15.04.2017 01:00 8,4 C 72 % 1015,1 hPa 0,0 l/m NW 0,00 h 0 W/m 2,4 km/h (1 Bft)
15.04.2017 02:00 9,2 C 64 % 1014,8 hPa 0,0 l/m W 0,00 h 0 W/m 9,0 km/h (2 Bft)
15.04.2017 03:00 9,0 C 65 % 1014,8 hPa 0,0 l/m W-SW 0,00 h 0 W/m 10,6 km/h (2 Bft)
15.04.2017 04:00 9,2 C 64 % 1014,7 hPa 0,0 l/m W-SW 0,00 h 0 W/m 6,3 km/h (2 Bft)
15.04.2017 05:00 9,0 C 64 % 1014,4 hPa 0,0 l/m W-SW 0,00 h 0 W/m 7,4 km/h (2 Bft)
15.04.2017 06:00 8,9 C 64 % 1014,3 hPa 0,0 l/m W-SW 0,00 h 7 W/m 9,7 km/h (2 Bft)
15.04.2017 07:00 8,7 C 68 % 1014,5 hPa 0,0 l/m W-SW 0,00 h 62 W/m 2,7 km/h (1 Bft)
15.04.2017 08:00 9,2 C 72 % 1014,7 hPa 0,0 l/m W-SW 0,17 h 155 W/m 7,0 km/h (2 Bft)
15.04.2017 09:00 11,4 C 65 % 1014,6 hPa 0,0 l/m W-SW 0,50 h 259 W/m 14,9 km/h (3 Bft)
15.04.2017 10:00 13,0 C 62 % 1014,5 hPa 0,0 l/m W-SW 0,83 h 447 W/m 17,0 km/h (3 Bft)
15.04.2017 11:00 14,1 C 59 % 1014,2 hPa 0,0 l/m SW 0,75 h 519 W/m 23,5 km/h (4 Bft)
15.04.2017 12:00 13,0 C 67 % 1014,1 hPa 1,8 l/m W 0,00 h 177 W/m 19,0 km/h (3 Bft)
15.04.2017 13:00 11,1 C 83 % 1014,2 hPa 0,4 l/m W 0,17 h 252 W/m 18,1 km/h (3 Bft)
15.04.2017 14:00 10,7 C 86 % 1014,5 hPa 0,8 l/m W 0,00 h 183 W/m 20,0 km/h (4 Bft)
15.04.2017 15:00 11,4 C 86 % 1014,2 hPa 0,0 l/m W-SW 0,33 h 353 W/m 17,4 km/h (3 Bft)
15.04.2017 16:00 12,3 C 80 % 1013,8 hPa 0,0 l/m W-SW 0,33 h 257 W/m 20,9 km/h (4 Bft)
15.04.2017 17:00 11,9 C 80 % 1013,8 hPa 0,0 l/m W-SW 0,00 h 142 W/m 15,7 km/h (3 Bft)
15.04.2017 18:00 11,8 C 78 % 1013,9 hPa 0,0 l/m W 0,00 h 57 W/m 11,0 km/h (2 Bft)
15.04.2017 19:00 11,3 C 73 % 1014,2 hPa 0,0 l/m W-NW 0,00 h 15 W/m 12,1 km/h (2 Bft)
15.04.2017 20:00 10,4 C 75 % 1014,9 hPa 0,2 l/m NW 0,00 h 0 W/m 13,1 km/h (3 Bft)
15.04.2017 21:00 9,6 C 79 % 1015,5 hPa 0,0 l/m W-NW 0,00 h 0 W/m 13,3 km/h (3 Bft)
15.04.2017 22:00 9,3 C 79 % 1015,6 hPa 0,0 l/m W-NW 0,00 h 0 W/m 9,3 km/h (2 Bft)
15.04.2017 23:00 9,0 C 80 % 1016,0 hPa 0,0 l/m W 0,00 h 0 W/m 11,1 km/h (2 Bft)
16.04.2017 00:00 8,7 C 81 % 1016,6 hPa 0,2 l/m W-NW 0,00 h 0 W/m 18,0 km/h (3 Bft)
16.04.2017 01:00 7,0 C 90 % 1016,9 hPa 0,4 l/m W-NW 0,00 h 0 W/m 8,7 km/h (2 Bft)
16.04.2017 02:00 6,6 C 92 % 1016,7 hPa 0,0 l/m W 0,00 h 0 W/m 11,3 km/h (2 Bft)
16.04.2017 03:00 6,7 C 91 % 1016,8 hPa 0,0 l/m W 0,00 h 0 W/m 13,7 km/h (3 Bft)
16.04.2017 04:00 6,7 C 90 % 1016,8 hPa 0,0 l/m W 0,00 h 0 W/m 14,2 km/h (3 Bft)
16.04.2017 05:00 6,4 C 88 % 1016,9 hPa 0,0 l/m W 0,00 h 0 W/m 8,9 km/h (2 Bft)
16.04.2017 06:00 6,2 C 88 % 1017,2 hPa 0,0 l/m W 0,00 h 5 W/m 1,9 km/h (1 Bft)
16.04.2017 07:00 6,1 C 89 % 1017,5 hPa 0,6 l/m W 0,00 h 14 W/m 5,4 km/h (1 Bft)
16.04.2017 08:00 6,0 C 93 % 1017,8 hPa 0,6 l/m W 0,00 h 40 W/m 1,6 km/h (1 Bft)
16.04.2017 09:00 6,1 C 94 % 1017,8 hPa 0,6 l/m N 0,00 h 43 W/m 5,1 km/h (1 Bft)
16.04.2017 10:00 6,1 C 95 % 1018,0 hPa 0,0 l/m N 0,00 h 99 W/m 0,3 km/h (0 Bft)
16.04.2017 11:00 6,9 C 92 % 1018,1 hPa 0,0 l/m N 0,00 h 139 W/m 1,1 km/h (0 Bft)
16.04.2017 12:00 7,1 C 87 % 1018,3 hPa 0,2 l/m N 0,00 h 190 W/m 11,6 km/h (2 Bft)
16.04.2017 13:00 6,2 C 89 % 1018,1 hPa 1,0 l/m N 0,00 h 246 W/m 11,9 km/h (2 Bft)
16.04.2017 14:00 6,9 C 88 % 1017,6 hPa 0,2 l/m N-NW 0,08 h 290 W/m 12,0 km/h (2 Bft)
16.04.2017 15:00 6,1 C 89 % 1017,6 hPa 0,6 l/m W 0,00 h 159 W/m 13,0 km/h (3 Bft)
16.04.2017 16:00 6,6 C 87 % 1017,4 hPa 0,0 l/m W 0,00 h 128 W/m 10,7 km/h (2 Bft)
16.04.2017 17:00 5,7 C 89 % 1017,9 hPa 0,4 l/m N-NO 0,00 h 84 W/m 7,5 km/h (2 Bft)
16.04.2017 18:00 5,5 C 92 % 1018,3 hPa 0,8 l/m N 0,00 h 47 W/m 4,2 km/h (1 Bft)
16.04.2017 19:00 5,0 C 93 % 1018,9 hPa 0,8 l/m N 0,00 h 29 W/m 4,5 km/h (1 Bft)
16.04.2017 20:00 4,7 C 95 % 1019,4 hPa 0,0 l/m N 0,00 h 7 W/m 0,5 km/h (0 Bft)
16.04.2017 21:00 4,5 C 95 % 1020,1 hPa 0,0 l/m W 0,00 h 0 W/m 6,6 km/h (2 Bft)
16.04.2017 22:00 4,4 C 94 % 1020,1 hPa 0,0 l/m SW 0,00 h 0 W/m 9,4 km/h (2 Bft)
16.04.2017 23:00 4,5 C 95 % 1020,3 hPa 0,2 l/m SW 0,00 h 0 W/m 1,9 km/h (1 Bft)
Min-Datum _ 12.04.17 10.04.17 13.04.17 - - - - 10.04.17
_ Min-Zeit 07:10 18:00 17:20 - - - - 00:00
Minimum _ 2,1 C 36 % 1011,6 hPa - - - - 0,0 km/h (0 Bft)
Max-Datum _ 10.04.17 16.04.17 11.04.17 15.04.17 - 10.04.17 13.04.17 15.04.17
_ Max-Zeit 14:55 09:45 22:25 12:35 - 06:55 12:25 11:45
Maximum _ 22,4 C 95 % 1022,8 hPa 1,8 l/m - 0,08 h 1136 W/m 35,4 km/h
SW (5 Bft)
Durchschnitt _ 10,4 C 70 % 1016,4 hPa #10,8 l/m W #40:25 h 274 W/m 9,3 km/h (2 Bft)